createdAt,value
2023-04-19T00:00:00.000Z,10.09
2023-04-19T00:15:00.000Z,9.71
2023-04-19T00:30:00.000Z,10.31
2023-04-19T00:45:00.000Z,10.72
2023-04-19T01:00:00.000Z,11.19
2023-04-19T01:15:00.000Z,11.41
2023-04-19T01:30:00.000Z,11.85
2023-04-19T01:45:00.000Z,11.93
2023-04-19T02:00:00.000Z,12.12
2023-04-19T02:15:00.000Z,12.58
2023-04-19T02:30:00.000Z,13.89
2023-04-19T02:45:00.000Z,14.32
2023-04-19T03:00:00.000Z,15.6
2023-04-19T03:15:00.000Z,17.09
2023-04-19T03:30:00.000Z,18.48
2023-04-19T03:45:00.000Z,18.59
2023-04-19T04:00:00.000Z,20.05
2023-04-19T04:15:00.000Z,19.51
2023-04-19T04:30:00.000Z,25.82
2023-04-19T04:45:00.000Z,26.27
2023-04-19T05:00:00.000Z,28.64
2023-04-19T05:15:00.000Z,35.14
2023-04-19T05:30:00.000Z,31.53
2023-04-19T05:45:00.000Z,29.34
2023-04-19T06:00:00.000Z,28.2
2023-04-19T06:15:00.000Z,27.25
2023-04-19T06:30:00.000Z,29.31
2023-04-19T06:45:00.000Z,29.52
2023-04-19T07:00:00.000Z,28.16
2023-04-19T07:15:00.000Z,32.15
2023-04-19T07:30:00.000Z,29.08
2023-04-19T07:45:00.000Z,27.89
2023-04-19T08:00:00.000Z,26.55
2023-04-19T08:15:00.000Z,26.8
2023-04-19T08:30:00.000Z,31.74
2023-04-19T08:45:00.000Z,28.18
2023-04-19T09:00:00.000Z,26.94
2023-04-19T09:15:00.000Z,25.74
2023-04-19T09:30:00.000Z,18.29
2023-04-19T09:45:00.000Z,20.06
2023-04-19T10:00:00.000Z,20.88
2023-04-19T10:15:00.000Z,27.18
2023-04-19T10:30:00.000Z,31
2023-04-19T10:45:00.000Z,27.02
2023-04-19T11:00:00.000Z,27.45
2023-04-19T11:15:00.000Z,28.52
2023-04-19T11:30:00.000Z,29.38
2023-04-19T11:45:00.000Z,29.56
2023-04-19T12:00:00.000Z,30.02
2023-04-19T12:15:00.000Z,23.81
2023-04-19T12:30:00.000Z,18.91
2023-04-19T12:45:00.000Z,20.99
2023-04-19T13:00:00.000Z,18.59
2023-04-19T13:15:00.000Z,19.72
2023-04-19T13:30:00.000Z,13.64
2023-04-19T13:45:00.000Z,11.29
2023-04-19T14:00:00.000Z,11.51
2023-04-19T14:15:00.000Z,9.89
2023-04-19T14:30:00.000Z,9.98
2023-04-19T14:45:00.000Z,11.28
2023-04-19T15:00:00.000Z,3.61
2023-04-19T15:15:00.000Z,3.13
2023-04-19T15:30:00.000Z,3.47
2023-04-19T15:45:00.000Z,2.68
2023-04-19T16:00:00.000Z,2.82
2023-04-19T16:15:00.000Z,1.94
2023-04-19T16:30:00.000Z,2.67
2023-04-19T16:45:00.000Z,2.96
2023-04-19T17:00:00.000Z,4.88
2023-04-19T17:15:00.000Z,10.18
2023-04-19T17:30:00.000Z,2.89
2023-04-19T17:45:00.000Z,3.12
2023-04-19T18:00:00.000Z,3.33
2023-04-19T18:15:00.000Z,4.11
2023-04-19T18:30:00.000Z,5
2023-04-19T18:45:00.000Z,4.59
2023-04-19T19:00:00.000Z,5.25
2023-04-19T19:15:00.000Z,5.36
2023-04-19T19:30:00.000Z,4.98
2023-04-19T19:45:00.000Z,4.93
2023-04-19T20:00:00.000Z,6
2023-04-19T20:15:00.000Z,5.75
2023-04-19T20:30:00.000Z,5.15
2023-04-19T20:45:00.000Z,7.62
2023-04-19T21:00:00.000Z,10.75
2023-04-19T21:15:00.000Z,12.24
2023-04-19T21:30:00.000Z,13.15
2023-04-19T21:45:00.000Z,13.4
2023-04-19T22:00:00.000Z,15.94
2023-04-19T22:15:00.000Z,16.81
2023-04-19T22:30:00.000Z,17.72
2023-04-19T22:45:00.000Z,17.08
2023-04-19T23:00:00.000Z,15.33
2023-04-19T23:15:00.000Z,14.04
2023-04-19T23:30:00.000Z,11.85
2023-04-19T23:45:00.000Z,11.99
